sensor_id;sensor_type;location;lat;lon;timestamp;pressure;altitude;pressure_sealevel;temperature;humidity
50650;BME280;36621;60.058;30.346;2023-04-20T00:00:34;102801.72;;;7.44;31.03
50650;BME280;36621;60.058;30.346;2023-04-20T00:08:07;102784.91;;;7.27;31.56
50650;BME280;36621;60.058;30.346;2023-04-20T00:15:39;102791.75;;;7.17;32.32
50650;BME280;36621;60.058;30.346;2023-04-20T00:23:12;102774.47;;;6.96;32.76
50650;BME280;36621;60.058;30.346;2023-04-20T00:30:44;102760.69;;;6.98;32.99
50650;BME280;36621;60.058;30.346;2023-04-20T00:38:17;102762.44;;;7.12;33.03
50650;BME280;36621;60.058;30.346;2023-04-20T00:45:49;102771.06;;;7.16;33.62
50650;BME280;36621;60.058;30.346;2023-04-20T00:53:23;102745.38;;;7.18;33.91
50650;BME280;36621;60.058;30.346;2023-04-20T01:00:54;102752.28;;;7.27;33.41
50650;BME280;36621;60.058;30.346;2023-04-20T01:08:28;102741.22;;;7.22;33.84
50650;BME280;36621;60.058;30.346;2023-04-20T01:16:00;102751.06;;;7.30;33.80
50650;BME280;36621;60.058;30.346;2023-04-20T01:23:34;102729.13;;;7.32;34.40
50650;BME280;36621;60.058;30.346;2023-04-20T01:31:09;102728.09;;;7.33;34.45
50650;BME280;36621;60.058;30.346;2023-04-20T01:38:42;102730.25;;;7.44;33.95
50650;BME280;36621;60.058;30.346;2023-04-20T01:46:14;102730.84;;;7.46;34.38
50650;BME280;36621;60.058;30.346;2023-04-20T01:53:47;102728.19;;;7.53;34.17
50650;BME280;36621;60.058;30.346;2023-04-20T02:01:19;102724.97;;;7.42;34.64
50650;BME280;36621;60.058;30.346;2023-04-20T02:08:51;102719.16;;;7.45;35.40
50650;BME280;36621;60.058;30.346;2023-04-20T02:16:23;102723.13;;;7.50;36.97
50650;BME280;36621;60.058;30.346;2023-04-20T02:23:56;102672.00;;;7.18;35.87
50650;BME280;36621;60.058;30.346;2023-04-20T02:31:28;102693.59;;;7.33;36.71
50650;BME280;36621;60.058;30.346;2023-04-20T02:39:00;102707.63;;;7.43;37.14
50650;BME280;36621;60.058;30.346;2023-04-20T02:46:33;102710.34;;;7.43;37.27
50650;BME280;36621;60.058;30.346;2023-04-20T02:54:06;102711.88;;;7.53;36.43
50650;BME280;36621;60.058;30.346;2023-04-20T03:01:38;102665.00;;;7.44;36.91
50650;BME280;36621;60.058;30.346;2023-04-20T03:09:17;102675.56;;;8.00;35.30
50650;BME280;36621;60.058;30.346;2023-04-20T03:17:08;102688.97;;;8.69;34.18
50650;BME280;36621;60.058;30.346;2023-04-20T03:24:41;102677.38;;;9.07;34.08
50650;BME280;36621;60.058;30.346;2023-04-20T03:32:25;102688.44;;;9.57;33.64
50650;BME280;36621;60.058;30.346;2023-04-20T03:39:59;102642.78;;;10.10;31.36
50650;BME280;36621;60.058;30.346;2023-04-20T03:47:31;102693.44;;;11.30;30.45
50650;BME280;36621;60.058;30.346;2023-04-20T03:55:06;102679.72;;;12.22;28.58
50650;BME280;36621;60.058;30.346;2023-04-20T04:02:43;102679.47;;;13.06;26.30
50650;BME280;36621;60.058;30.346;2023-04-20T04:10:17;102651.16;;;14.04;25.40
50650;BME280;36621;60.058;30.346;2023-04-20T04:17:52;102666.34;;;15.78;23.68
50650;BME280;36621;60.058;30.346;2023-04-20T04:25:25;102674.63;;;17.70;21.51
50650;BME280;36621;60.058;30.346;2023-04-20T04:32:57;102664.59;;;18.92;20.09
50650;BME280;36621;60.058;30.346;2023-04-20T04:40:33;102671.44;;;19.55;19.80
50650;BME280;36621;60.058;30.346;2023-04-20T04:48:07;102660.00;;;20.36;18.80
50650;BME280;36621;60.058;30.346;2023-04-20T04:55:40;102666.25;;;21.63;18.19
50650;BME280;36621;60.058;30.346;2023-04-20T05:03:12;102646.28;;;22.27;17.16
50650;BME280;36621;60.058;30.346;2023-04-20T05:10:47;102655.38;;;24.12;15.83
50650;BME280;36621;60.058;30.346;2023-04-20T05:18:19;102642.91;;;19.94;18.81
50650;BME280;36621;60.058;30.346;2023-04-20T05:25:52;102643.44;;;16.86;22.33
50650;BME280;36621;60.058;30.346;2023-04-20T05:33:27;102621.66;;;15.71;23.83
50650;BME280;36621;60.058;30.346;2023-04-20T05:41:00;102637.38;;;16.03;24.05
50650;BME280;36621;60.058;30.346;2023-04-20T05:48:32;102629.09;;;14.94;25.87
50650;BME280;36621;60.058;30.346;2023-04-20T05:56:05;102584.78;;;14.68;26.12
50650;BME280;36621;60.058;30.346;2023-04-20T06:03:37;102625.34;;;14.61;26.50
50650;BME280;36621;60.058;30.346;2023-04-20T06:11:10;102610.84;;;14.10;26.94
50650;BME280;36621;60.058;30.346;2023-04-20T06:18:42;102603.19;;;13.78;27.80
50650;BME280;36621;60.058;30.346;2023-04-20T06:26:15;102576.16;;;14.03;26.28
50650;BME280;36621;60.058;30.346;2023-04-20T06:33:47;102589.63;;;14.83;26.42
50650;BME280;36621;60.058;30.346;2023-04-20T06:41:20;102588.25;;;15.30;25.56
50650;BME280;36621;60.058;30.346;2023-04-20T06:48:51;102539.09;;;15.44;24.35
50650;BME280;36621;60.058;30.346;2023-04-20T06:56:24;102566.72;;;15.82;24.63
50650;BME280;36621;60.058;30.346;2023-04-20T07:03:59;102564.72;;;15.44;25.13
50650;BME280;36621;60.058;30.346;2023-04-20T07:11:33;102560.09;;;15.23;25.56
50650;BME280;36621;60.058;30.346;2023-04-20T07:19:05;102557.16;;;15.02;26.35
50650;BME280;36621;60.058;30.346;2023-04-20T07:26:38;102530.09;;;14.94;26.75
50650;BME280;36621;60.058;30.346;2023-04-20T07:34:10;102551.59;;;15.57;25.68
50650;BME280;36621;60.058;30.346;2023-04-20T07:41:42;102533.13;;;15.85;25.77
50650;BME280;36621;60.058;30.346;2023-04-20T07:49:14;102536.44;;;16.29;25.61
50650;BME280;36621;60.058;30.346;2023-04-20T07:56:47;102528.81;;;16.47;25.73
50650;BME280;36621;60.058;30.346;2023-04-20T08:04:19;102517.81;;;15.99;25.79
50650;BME280;36621;60.058;30.346;2023-04-20T08:11:52;102507.53;;;15.57;26.51
50650;BME280;36621;60.058;30.346;2023-04-20T08:19:24;102494.63;;;15.25;27.35
50650;BME280;36621;60.058;30.346;2023-04-20T08:26:57;102504.81;;;14.97;27.87
50650;BME280;36621;60.058;30.346;2023-04-20T08:34:30;102476.41;;;14.64;28.53
50650;BME280;36621;60.058;30.346;2023-04-20T08:42:03;102496.56;;;14.97;28.05
50650;BME280;36621;60.058;30.346;2023-04-20T08:49:35;102478.31;;;14.86;27.55
50650;BME280;36621;60.058;30.346;2023-04-20T08:57:10;102475.13;;;14.50;27.84
50650;BME280;36621;60.058;30.346;2023-04-20T09:04:42;102464.47;;;14.53;28.52
50650;BME280;36621;60.058;30.346;2023-04-20T09:12:15;102464.34;;;14.65;28.15
50650;BME280;36621;60.058;30.346;2023-04-20T09:19:52;102462.75;;;14.69;28.22
50650;BME280;36621;60.058;30.346;2023-04-20T09:27:25;102456.66;;;14.67;27.58
50650;BME280;36621;60.058;30.346;2023-04-20T09:34:57;102433.56;;;14.63;28.48
50650;BME280;36621;60.058;30.346;2023-04-20T09:42:31;102431.00;;;14.84;28.69
50650;BME280;36621;60.058;30.346;2023-04-20T09:50:05;102437.16;;;15.28;26.71
50650;BME280;36621;60.058;30.346;2023-04-20T09:57:39;102408.50;;;15.62;26.58
50650;BME280;36621;60.058;30.346;2023-04-20T10:05:11;102414.19;;;15.93;27.57
50650;BME280;36621;60.058;30.346;2023-04-20T10:12:47;102401.72;;;16.54;26.50
50650;BME280;36621;60.058;30.346;2023-04-20T10:20:22;102406.72;;;16.67;26.27
50650;BME280;36621;60.058;30.346;2023-04-20T10:27:57;102372.50;;;16.47;25.96
50650;BME280;36621;60.058;30.346;2023-04-20T10:35:40;102384.09;;;16.55;26.03
50650;BME280;36621;60.058;30.346;2023-04-20T10:43:19;102370.56;;;16.48;26.19
50650;BME280;36621;60.058;30.346;2023-04-20T10:50:52;102382.97;;;16.45;25.43
50650;BME280;36621;60.058;30.346;2023-04-20T10:58:24;102363.13;;;16.54;25.48
50650;BME280;36621;60.058;30.346;2023-04-20T11:05:56;102368.06;;;16.46;25.21
50650;BME280;36621;60.058;30.346;2023-04-20T11:13:32;102366.69;;;16.34;25.61
50650;BME280;36621;60.058;30.346;2023-04-20T11:21:06;102340.19;;;16.17;25.52
50650;BME280;36621;60.058;30.346;2023-04-20T11:28:52;102341.56;;;16.20;26.34
50650;BME280;36621;60.058;30.346;2023-04-20T11:36:27;102347.28;;;15.97;26.03
50650;BME280;36621;60.058;30.346;2023-04-20T11:44:00;102349.06;;;15.66;26.26
50650;BME280;36621;60.058;30.346;2023-04-20T11:51:32;102358.44;;;14.90;27.35
50650;BME280;36621;60.058;30.346;2023-04-20T11:59:05;102327.25;;;14.19;28.19
50650;BME280;36621;60.058;30.346;2023-04-20T12:06:37;102331.56;;;13.88;31.53
50650;BME280;36621;60.058;30.346;2023-04-20T12:14:09;102319.38;;;13.57;33.20
50650;BME280;36621;60.058;30.346;2023-04-20T12:21:41;102334.28;;;13.44;34.08
50650;BME280;36621;60.058;30.346;2023-04-20T12:29:14;102321.19;;;13.12;37.55
50650;BME280;36621;60.058;30.346;2023-04-20T12:36:47;102295.50;;;13.01;35.85
50650;BME280;36621;60.058;30.346;2023-04-20T12:44:19;102295.81;;;13.21;36.91
50650;BME280;36621;60.058;30.346;2023-04-20T12:51:54;102262.19;;;12.92;36.32
50650;BME280;36621;60.058;30.346;2023-04-20T12:59:27;102268.84;;;12.96;36.52
50650;BME280;36621;60.058;30.346;2023-04-20T13:07:01;102253.19;;;13.14;37.05
50650;BME280;36621;60.058;30.346;2023-04-20T13:14:34;102251.47;;;13.47;37.00
50650;BME280;36621;60.058;30.346;2023-04-20T13:22:09;102233.34;;;13.68;38.24
50650;BME280;36621;60.058;30.346;2023-04-20T13:29:45;102229.75;;;13.89;35.67
50650;BME280;36621;60.058;30.346;2023-04-20T13:37:17;102225.88;;;13.90;35.20
50650;BME280;36621;60.058;30.346;2023-04-20T13:44:51;102215.50;;;13.93;35.64
50650;BME280;36621;60.058;30.346;2023-04-20T13:52:23;102204.88;;;14.01;35.80
50650;BME280;36621;60.058;30.346;2023-04-20T13:59:56;102171.59;;;13.98;34.79
50650;BME280;36621;60.058;30.346;2023-04-20T14:07:29;102198.03;;;14.04;33.83
50650;BME280;36621;60.058;30.346;2023-04-20T14:15:02;102201.25;;;13.96;34.87
50650;BME280;36621;60.058;30.346;2023-04-20T14:22:35;102175.34;;;13.59;35.87
50650;BME280;36621;60.058;30.346;2023-04-20T14:30:09;102194.66;;;13.69;35.35
50650;BME280;36621;60.058;30.346;2023-04-20T14:37:41;102191.19;;;13.79;34.78
50650;BME280;36621;60.058;30.346;2023-04-20T14:45:14;102174.03;;;13.94;34.24
50650;BME280;36621;60.058;30.346;2023-04-20T14:52:46;102160.72;;;13.81;34.60
50650;BME280;36621;60.058;30.346;2023-04-20T15:00:20;102174.50;;;13.86;35.58
50650;BME280;36621;60.058;30.346;2023-04-20T15:07:55;102155.03;;;13.60;35.08
50650;BME280;36621;60.058;30.346;2023-04-20T15:15:28;102123.56;;;13.41;34.73
50650;BME280;36621;60.058;30.346;2023-04-20T15:23:00;102142.56;;;13.75;35.61
50650;BME280;36621;60.058;30.346;2023-04-20T15:30:33;102121.38;;;13.70;35.85
50650;BME280;36621;60.058;30.346;2023-04-20T15:38:05;102101.81;;;13.61;35.35
50650;BME280;36621;60.058;30.346;2023-04-20T15:45:38;102112.78;;;13.61;34.97
50650;BME280;36621;60.058;30.346;2023-04-20T15:53:10;102109.13;;;13.28;36.08
50650;BME280;36621;60.058;30.346;2023-04-20T16:00:43;102090.66;;;12.96;36.70
50650;BME280;36621;60.058;30.346;2023-04-20T16:08:16;102059.84;;;12.45;37.07
50650;BME280;36621;60.058;30.346;2023-04-20T16:15:49;102079.22;;;12.38;37.74
50650;BME280;36621;60.058;30.346;2023-04-20T16:23:21;102076.09;;;12.29;37.55
50650;BME280;36621;60.058;30.346;2023-04-20T16:30:54;102077.66;;;12.25;38.52
50650;BME280;36621;60.058;30.346;2023-04-20T16:38:26;102051.53;;;11.84;39.49
50650;BME280;36621;60.058;30.346;2023-04-20T16:45:59;102069.53;;;11.79;39.59
50650;BME280;36621;60.058;30.346;2023-04-20T16:53:31;102062.13;;;11.63;40.29
50650;BME280;36621;60.058;30.346;2023-04-20T17:01:05;102061.63;;;11.49;41.18
50650;BME280;36621;60.058;30.346;2023-04-20T17:08:37;102043.09;;;11.22;41.44
50650;BME280;36621;60.058;30.346;2023-04-20T17:16:10;102041.13;;;11.06;42.11
50650;BME280;36621;60.058;30.346;2023-04-20T17:23:42;102053.34;;;10.86;42.81
50650;BME280;36621;60.058;30.346;2023-04-20T17:31:15;102048.19;;;10.49;43.62
50650;BME280;36621;60.058;30.346;2023-04-20T17:38:47;102024.81;;;10.18;44.86
50650;BME280;36621;60.058;30.346;2023-04-20T17:46:21;102034.66;;;10.07;45.30
50650;BME280;36621;60.058;30.346;2023-04-20T17:53:53;102037.28;;;10.02;45.42
50650;BME280;36621;60.058;30.346;2023-04-20T18:01:26;102031.56;;;9.91;45.49
50650;BME280;36621;60.058;30.346;2023-04-20T18:08:59;102030.50;;;9.81;46.58
50650;BME280;36621;60.058;30.346;2023-04-20T18:16:32;102030.38;;;9.64;46.49
50650;BME280;36621;60.058;30.346;2023-04-20T18:24:05;102020.59;;;9.44;47.41
50650;BME280;36621;60.058;30.346;2023-04-20T18:31:38;102021.31;;;9.39;47.75
50650;BME280;36621;60.058;30.346;2023-04-20T18:39:12;101994.00;;;9.16;47.82
50650;BME280;36621;60.058;30.346;2023-04-20T18:46:46;102002.47;;;9.08;47.81
50650;BME280;36621;60.058;30.346;2023-04-20T18:54:18;101987.63;;;8.92;48.53
50650;BME280;36621;60.058;30.346;2023-04-20T19:01:52;102022.75;;;9.12;48.10
50650;BME280;36621;60.058;30.346;2023-04-20T19:09:31;102015.44;;;8.94;49.00
50650;BME280;36621;60.058;30.346;2023-04-20T19:17:06;102010.00;;;8.94;49.23
50650;BME280;36621;60.058;30.346;2023-04-20T19:24:38;102003.06;;;8.79;49.24
50650;BME280;36621;60.058;30.346;2023-04-20T19:32:11;101967.06;;;8.47;49.25
50650;BME280;36621;60.058;30.346;2023-04-20T19:39:43;101976.94;;;8.60;49.40
50650;BME280;36621;60.058;30.346;2023-04-20T19:47:16;101999.13;;;8.75;49.50
50650;BME280;36621;60.058;30.346;2023-04-20T19:54:48;102000.28;;;8.67;50.33
50650;BME280;36621;60.058;30.346;2023-04-20T20:02:20;101988.28;;;8.57;49.84
50650;BME280;36621;60.058;30.346;2023-04-20T20:09:52;101979.00;;;8.46;51.01
50650;BME280;36621;60.058;30.346;2023-04-20T20:17:25;101982.75;;;8.45;50.74
50650;BME280;36621;60.058;30.346;2023-04-20T20:24:57;101989.63;;;8.29;51.36
50650;BME280;36621;60.058;30.346;2023-04-20T20:32:32;101979.94;;;8.33;51.77
50650;BME280;36621;60.058;30.346;2023-04-20T20:40:05;101962.03;;;8.25;51.37
50650;BME280;36621;60.058;30.346;2023-04-20T20:47:41;101962.28;;;8.24;52.29
50650;BME280;36621;60.058;30.346;2023-04-20T20:55:15;101960.88;;;8.14;52.18
50650;BME280;36621;60.058;30.346;2023-04-20T21:02:47;101956.81;;;8.05;52.66
50650;BME280;36621;60.058;30.346;2023-04-20T21:10:19;101934.59;;;7.90;52.85
50650;BME280;36621;60.058;30.346;2023-04-20T21:17:52;101952.88;;;8.01;52.75
50650;BME280;36621;60.058;30.346;2023-04-20T21:25:24;101946.44;;;7.95;53.17
50650;BME280;36621;60.058;30.346;2023-04-20T21:32:58;101916.09;;;7.80;53.27
50650;BME280;36621;60.058;30.346;2023-04-20T21:40:31;101931.72;;;7.85;53.27
50650;BME280;36621;60.058;30.346;2023-04-20T21:48:06;101913.56;;;7.78;53.72
50650;BME280;36621;60.058;30.346;2023-04-20T21:55:38;101909.50;;;7.69;54.13
50650;BME280;36621;60.058;30.346;2023-04-20T22:03:13;101926.41;;;7.71;53.74
50650;BME280;36621;60.058;30.346;2023-04-20T22:10:45;101889.06;;;7.41;54.50
50650;BME280;36621;60.058;30.346;2023-04-20T22:18:18;101922.44;;;7.48;55.02
50650;BME280;36621;60.058;30.346;2023-04-20T22:25:50;101904.09;;;7.44;55.24
50650;BME280;36621;60.058;30.346;2023-04-20T22:33:23;101895.78;;;7.39;55.55
50650;BME280;36621;60.058;30.346;2023-04-20T22:40:55;101884.72;;;7.34;55.84
50650;BME280;36621;60.058;30.346;2023-04-20T22:48:28;101888.56;;;7.26;56.17
50650;BME280;36621;60.058;30.346;2023-04-20T22:56:04;101869.56;;;7.26;56.21
50650;BME280;36621;60.058;30.346;2023-04-20T23:03:37;101856.09;;;7.12;56.42
50650;BME280;36621;60.058;30.346;2023-04-20T23:11:09;101858.88;;;7.06;56.53
50650;BME280;36621;60.058;30.346;2023-04-20T23:18:42;101860.88;;;6.92;56.59
50650;BME280;36621;60.058;30.346;2023-04-20T23:26:13;101863.19;;;6.88;57.24
50650;BME280;36621;60.058;30.346;2023-04-20T23:33:47;101805.66;;;6.41;57.25
50650;BME280;36621;60.058;30.346;2023-04-20T23:41:19;101859.56;;;6.69;57.32
50650;BME280;36621;60.058;30.346;2023-04-20T23:48:52;101858.22;;;6.78;57.64
50650;BME280;36621;60.058;30.346;2023-04-20T23:56:25;101846.88;;;6.88;57.64
